sensor_id;sensor_type;location;lat;lon;timestamp;pressure;altitude;pressure_sealevel;temperature;humidity
21086;BME280;34247;50.064;19.970;2023-04-25T00:00:15;98086.63;;;14.75;100.00
21086;BME280;34247;50.064;19.970;2023-04-25T00:01:23;98083.81;;;14.77;100.00
21086;BME280;34247;50.064;19.970;2023-04-25T00:02:27;98082.66;;;14.79;100.00
21086;BME280;34247;50.064;19.970;2023-04-25T00:03:32;98074.66;;;14.79;100.00
21086;BME280;34247;50.064;19.970;2023-04-25T00:04:37;98084.00;;;14.83;100.00
21086;BME280;34247;50.064;19.970;2023-04-25T00:05:42;98081.50;;;14.82;100.00
21086;BME280;34247;50.064;19.970;2023-04-25T00:06:46;98088.50;;;14.83;100.00
21086;BME280;34247;50.064;19.970;2023-04-25T00:07:50;98086.16;;;14.80;100.00
21086;BME280;34247;50.064;19.970;2023-04-25T00:08:55;98094.03;;;14.81;100.00
21086;BME280;34247;50.064;19.970;2023-04-25T00:10:00;98086.09;;;14.64;100.00
21086;BME280;34247;50.064;19.970;2023-04-25T00:11:04;98092.75;;;14.59;100.00
21086;BME280;34247;50.064;19.970;2023-04-25T00:12:08;98091.88;;;14.51;100.00
21086;BME280;34247;50.064;19.970;2023-04-25T00:13:15;98084.63;;;14.43;100.00
21086;BME280;34247;50.064;19.970;2023-04-25T00:14:21;98093.19;;;14.29;100.00
21086;BME280;34247;50.064;19.970;2023-04-25T00:15:25;98093.78;;;14.15;100.00
21086;BME280;34247;50.064;19.970;2023-04-25T00:16:30;98088.06;;;14.10;100.00
21086;BME280;34247;50.064;19.970;2023-04-25T00:17:38;98090.66;;;14.01;100.00
21086;BME280;34247;50.064;19.970;2023-04-25T00:18:43;98093.56;;;13.90;100.00
21086;BME280;34247;50.064;19.970;2023-04-25T00:19:47;98094.28;;;13.74;100.00
21086;BME280;34247;50.064;19.970;2023-04-25T00:20:51;98086.97;;;13.76;100.00
21086;BME280;34247;50.064;19.970;2023-04-25T00:21:55;98093.75;;;13.71;100.00
21086;BME280;34247;50.064;19.970;2023-04-25T00:23:00;98103.81;;;13.77;100.00
21086;BME280;34247;50.064;19.970;2023-04-25T00:24:04;98093.44;;;13.74;100.00
21086;BME280;34247;50.064;19.970;2023-04-25T00:25:09;98098.31;;;13.78;100.00
21086;BME280;34247;50.064;19.970;2023-04-25T00:26:13;98096.19;;;13.64;100.00
21086;BME280;34247;50.064;19.970;2023-04-25T00:27:17;98101.31;;;13.58;100.00
21086;BME280;34247;50.064;19.970;2023-04-25T00:28:21;98100.31;;;13.59;100.00
21086;BME280;34247;50.064;19.970;2023-04-25T00:29:27;98101.31;;;13.58;100.00
21086;BME280;34247;50.064;19.970;2023-04-25T00:30:31;98094.97;;;13.59;100.00
21086;BME280;34247;50.064;19.970;2023-04-25T00:31:37;98106.84;;;13.46;100.00
21086;BME280;34247;50.064;19.970;2023-04-25T00:32:41;98100.84;;;13.44;100.00
21086;BME280;34247;50.064;19.970;2023-04-25T00:33:48;98101.97;;;13.42;100.00
21086;BME280;34247;50.064;19.970;2023-04-25T00:34:52;98106.84;;;13.46;100.00
21086;BME280;34247;50.064;19.970;2023-04-25T00:35:56;98103.22;;;13.47;100.00
21086;BME280;34247;50.064;19.970;2023-04-25T00:37:00;98091.16;;;13.43;100.00
21086;BME280;34247;50.064;19.970;2023-04-25T00:38:05;98100.31;;;13.41;100.00
21086;BME280;34247;50.064;19.970;2023-04-25T00:39:10;98101.28;;;13.40;100.00
21086;BME280;34247;50.064;19.970;2023-04-25T00:40:15;98101.44;;;13.38;100.00
21086;BME280;34247;50.064;19.970;2023-04-25T00:41:20;98097.50;;;13.42;100.00
21086;BME280;34247;50.064;19.970;2023-04-25T00:42:25;98096.19;;;13.46;100.00
21086;BME280;34247;50.064;19.970;2023-04-25T00:43:32;98106.25;;;13.52;100.00
21086;BME280;34247;50.064;19.970;2023-04-25T00:44:38;98113.88;;;13.47;100.00
21086;BME280;34247;50.064;19.970;2023-04-25T00:45:43;98111.81;;;13.41;100.00
21086;BME280;34247;50.064;19.970;2023-04-25T00:46:50;98099.75;;;13.37;100.00
21086;BME280;34247;50.064;19.970;2023-04-25T00:47:56;98108.31;;;13.41;100.00
21086;BME280;34247;50.064;19.970;2023-04-25T00:49:00;98113.47;;;13.42;100.00
21086;BME280;34247;50.064;19.970;2023-04-25T00:50:04;98108.91;;;13.35;100.00
21086;BME280;34247;50.064;19.970;2023-04-25T00:51:14;98112.59;;;13.24;100.00
21086;BME280;34247;50.064;19.970;2023-04-25T00:52:20;98121.16;;;13.28;100.00
21086;BME280;34247;50.064;19.970;2023-04-25T00:53:27;98108.72;;;13.18;100.00
21086;BME280;34247;50.064;19.970;2023-04-25T00:54:31;98117.66;;;13.27;100.00
21086;BME280;34247;50.064;19.970;2023-04-25T00:55:35;98117.34;;;13.30;100.00
21086;BME280;34247;50.064;19.970;2023-04-25T00:56:40;98118.03;;;13.32;100.00
21086;BME280;34247;50.064;19.970;2023-04-25T00:57:49;98122.16;;;13.27;100.00
21086;BME280;34247;50.064;19.970;2023-04-25T00:59:04;98121.00;;;13.29;100.00
21086;BME280;34247;50.064;19.970;2023-04-25T01:00:11;98113.00;;;13.29;100.00
21086;BME280;34247;50.064;19.970;2023-04-25T01:01:18;98123.34;;;13.32;100.00
21086;BME280;34247;50.064;19.970;2023-04-25T01:02:28;98122.50;;;13.32;100.00
21086;BME280;34247;50.064;19.970;2023-04-25T01:03:34;98127.31;;;13.28;100.00
21086;BME280;34247;50.064;19.970;2023-04-25T01:04:45;98119.38;;;13.18;100.00
21086;BME280;34247;50.064;19.970;2023-04-25T01:05:48;98119.31;;;13.28;100.00
21086;BME280;34247;50.064;19.970;2023-04-25T01:06:53;98124.50;;;13.30;100.00
21086;BME280;34247;50.064;19.970;2023-04-25T01:07:57;98120.47;;;13.26;100.00
21086;BME280;34247;50.064;19.970;2023-04-25T01:09:02;98123.97;;;13.26;100.00
21086;BME280;34247;50.064;19.970;2023-04-25T01:10:08;98125.56;;;13.37;100.00
21086;BME280;34247;50.064;19.970;2023-04-25T01:11:12;98122.06;;;13.36;100.00
21086;BME280;34247;50.064;19.970;2023-04-25T01:12:18;98122.75;;;13.38;100.00
21086;BME280;34247;50.064;19.970;2023-04-25T01:13:24;98120.31;;;13.45;100.00
21086;BME280;34247;50.064;19.970;2023-04-25T01:14:31;98126.22;;;13.48;100.00
21086;BME280;34247;50.064;19.970;2023-04-25T01:15:35;98127.19;;;13.47;100.00
21086;BME280;34247;50.064;19.970;2023-04-25T01:16:39;98129.56;;;13.50;100.00
21086;BME280;34247;50.064;19.970;2023-04-25T01:17:44;98125.38;;;13.48;100.00
21086;BME280;34247;50.064;19.970;2023-04-25T01:18:48;98127.19;;;13.47;100.00
21086;BME280;34247;50.064;19.970;2023-04-25T01:19:54;98127.03;;;13.49;100.00
21086;BME280;34247;50.064;19.970;2023-04-25T01:21:13;98131.22;;;13.51;100.00
21086;BME280;34247;50.064;19.970;2023-04-25T01:22:17;98140.63;;;13.56;100.00
21086;BME280;34247;50.064;19.970;2023-04-25T01:23:24;98130.06;;;13.54;100.00
21086;BME280;34247;50.064;19.970;2023-04-25T01:24:40;98131.47;;;13.58;100.00
21086;BME280;34247;50.064;19.970;2023-04-25T01:25:47;98132.28;;;13.59;100.00
21086;BME280;34247;50.064;19.970;2023-04-25T01:26:55;98137.56;;;13.50;100.00
21086;BME280;34247;50.064;19.970;2023-04-25T01:28:01;98131.81;;;13.45;100.00
21086;BME280;34247;50.064;19.970;2023-04-25T01:29:04;98135.88;;;13.49;100.00
21086;BME280;34247;50.064;19.970;2023-04-25T01:30:09;98133.50;;;13.46;100.00
21086;BME280;34247;50.064;19.970;2023-04-25T01:31:14;98131.91;;;13.53;100.00
21086;BME280;34247;50.064;19.970;2023-04-25T01:32:18;98135.41;;;13.54;100.00
21086;BME280;34247;50.064;19.970;2023-04-25T01:33:23;98134.25;;;13.39;100.00
21086;BME280;34247;50.064;19.970;2023-04-25T01:34:28;98131.06;;;13.35;100.00
21086;BME280;34247;50.064;19.970;2023-04-25T01:35:31;98128.56;;;13.34;100.00
21086;BME280;34247;50.064;19.970;2023-04-25T01:36:35;98132.06;;;13.34;100.00
21086;BME280;34247;50.064;19.970;2023-04-25T01:37:40;98133.41;;;13.38;100.00
21086;BME280;34247;50.064;19.970;2023-04-25T01:38:45;98130.59;;;13.40;100.00
21086;BME280;34247;50.064;19.970;2023-04-25T01:39:50;98132.72;;;13.36;100.00
21086;BME280;34247;50.064;19.970;2023-04-25T01:40:55;98130.75;;;13.38;100.00
21086;BME280;34247;50.064;19.970;2023-04-25T01:42:00;98127.25;;;13.38;100.00
21086;BME280;34247;50.064;19.970;2023-04-25T01:43:05;98128.09;;;13.38;100.00
21086;BME280;34247;50.064;19.970;2023-04-25T01:44:09;98132.56;;;13.38;100.00
21086;BME280;34247;50.064;19.970;2023-04-25T01:45:13;98132.56;;;13.38;100.00
21086;BME280;34247;50.064;19.970;2023-04-25T01:46:17;98123.25;;;13.24;100.00
21086;BME280;34247;50.064;19.970;2023-04-25T01:47:22;98124.41;;;13.21;100.00
21086;BME280;34247;50.064;19.970;2023-04-25T01:48:26;98134.06;;;13.22;100.00
21086;BME280;34247;50.064;19.970;2023-04-25T01:49:29;98126.31;;;13.29;100.00
21086;BME280;34247;50.064;19.970;2023-04-25T01:50:35;98124.91;;;13.35;100.00
21086;BME280;34247;50.064;19.970;2023-04-25T01:51:39;98127.41;;;13.36;100.00
21086;BME280;34247;50.064;19.970;2023-04-25T01:52:43;98134.81;;;13.42;100.00
21086;BME280;34247;50.064;19.970;2023-04-25T01:53:47;98125.50;;;13.46;100.00
21086;BME280;34247;50.064;19.970;2023-04-25T01:54:52;98132.13;;;13.42;100.00
21086;BME280;34247;50.064;19.970;2023-04-25T01:56:01;98128.16;;;13.46;100.00
21086;BME280;34247;50.064;19.970;2023-04-25T01:57:05;98133.06;;;13.51;100.00
21086;BME280;34247;50.064;19.970;2023-04-25T01:58:09;98136.28;;;13.55;100.00
21086;BME280;34247;50.064;19.970;2023-04-25T01:59:15;98134.03;;;13.50;100.00
21086;BME280;34247;50.064;19.970;2023-04-25T02:00:19;98144.47;;;13.43;100.00
21086;BME280;34247;50.064;19.970;2023-04-25T02:01:23;98142.66;;;13.44;100.00
21086;BME280;34247;50.064;19.970;2023-04-25T02:02:27;98139.56;;;13.39;100.00
21086;BME280;34247;50.064;19.970;2023-04-25T02:03:32;98150.47;;;13.45;100.00
21086;BME280;34247;50.064;19.970;2023-04-25T02:04:37;98149.22;;;13.49;100.00
21086;BME280;34247;50.064;19.970;2023-04-25T02:05:40;98153.53;;;13.50;100.00
21086;BME280;34247;50.064;19.970;2023-04-25T02:06:44;98144.41;;;13.53;100.00
21086;BME280;34247;50.064;19.970;2023-04-25T02:07:48;98150.44;;;13.55;100.00
21086;BME280;34247;50.064;19.970;2023-04-25T02:08:52;98149.72;;;13.53;100.00
21086;BME280;34247;50.064;19.970;2023-04-25T02:09:57;98140.53;;;13.47;100.00
21086;BME280;34247;50.064;19.970;2023-04-25T02:11:02;98154.81;;;13.46;100.00
21086;BME280;34247;50.064;19.970;2023-04-25T02:12:09;98146.75;;;13.38;100.00
21086;BME280;34247;50.064;19.970;2023-04-25T02:13:14;98143.41;;;13.36;100.00
21086;BME280;34247;50.064;19.970;2023-04-25T02:14:17;98146.06;;;13.36;100.00
21086;BME280;34247;50.064;19.970;2023-04-25T02:15:21;98141.72;;;13.35;100.00
21086;BME280;34247;50.064;19.970;2023-04-25T02:16:25;98143.56;;;13.35;100.00
21086;BME280;34247;50.064;19.970;2023-04-25T02:17:29;98144.81;;;13.31;100.00
21086;BME280;34247;50.064;19.970;2023-04-25T02:18:35;98139.56;;;13.39;100.00
21086;BME280;34247;50.064;19.970;2023-04-25T02:19:40;98142.41;;;13.37;100.00
21086;BME280;34247;50.064;19.970;2023-04-25T02:20:46;98148.97;;;13.43;100.00
21086;BME280;34247;50.064;19.970;2023-04-25T02:21:50;98153.47;;;13.42;100.00
21086;BME280;34247;50.064;19.970;2023-04-25T02:22:54;98153.16;;;13.45;100.00
21086;BME280;34247;50.064;19.970;2023-04-25T02:23:58;98151.06;;;13.39;99.19
21086;BME280;34247;50.064;19.970;2023-04-25T02:25:02;98152.97;;;13.29;100.00
21086;BME280;34247;50.064;19.970;2023-04-25T02:26:10;98157.16;;;13.32;100.00
21086;BME280;34247;50.064;19.970;2023-04-25T02:27:17;98149.63;;;13.27;100.00
21086;BME280;34247;50.064;19.970;2023-04-25T02:28:21;98154.66;;;13.30;100.00
21086;BME280;34247;50.064;19.970;2023-04-25T02:29:24;98145.66;;;13.31;100.00
21086;BME280;34247;50.064;19.970;2023-04-25T02:30:28;98149.78;;;13.16;100.00
21086;BME280;34247;50.064;19.970;2023-04-25T02:31:32;98147.69;;;13.19;100.00
21086;BME280;34247;50.064;19.970;2023-04-25T02:32:36;98143.34;;;13.18;100.00
21086;BME280;34247;50.064;19.970;2023-04-25T02:33:42;98139.81;;;13.18;100.00
21086;BME280;34247;50.064;19.970;2023-04-25T02:34:47;98145.13;;;13.18;100.00
21086;BME280;34247;50.064;19.970;2023-04-25T02:35:51;98147.97;;;13.16;100.00
21086;BME280;34247;50.064;19.970;2023-04-25T02:36:55;98145.59;;;13.13;100.00
21086;BME280;34247;50.064;19.970;2023-04-25T02:37:59;98149.50;;;13.19;100.00
21086;BME280;34247;50.064;19.970;2023-04-25T02:39:03;98141.38;;;13.11;100.00
21086;BME280;34247;50.064;19.970;2023-04-25T02:40:09;98139.72;;;13.10;100.00
21086;BME280;34247;50.064;19.970;2023-04-25T02:41:14;98139.44;;;13.13;100.00
21086;BME280;34247;50.064;19.970;2023-04-25T02:42:18;98140.72;;;13.09;100.00
21086;BME280;34247;50.064;19.970;2023-04-25T02:43:23;98145.34;;;13.07;100.00
21086;BME280;34247;50.064;19.970;2023-04-25T02:44:27;98148.84;;;13.07;100.00
21086;BME280;34247;50.064;19.970;2023-04-25T02:45:31;98140.19;;;13.05;100.00
21086;BME280;34247;50.064;19.970;2023-04-25T02:46:35;98152.03;;;13.11;100.00
21086;BME280;34247;50.064;19.970;2023-04-25T02:47:42;98153.34;;;13.07;100.00
21086;BME280;34247;50.064;19.970;2023-04-25T02:48:46;98145.50;;;13.05;100.00
21086;BME280;34247;50.064;19.970;2023-04-25T02:49:51;98146.44;;;13.14;100.00
21086;BME280;34247;50.064;19.970;2023-04-25T02:50:55;98151.47;;;13.17;100.00
21086;BME280;34247;50.064;19.970;2023-04-25T02:51:59;98143.63;;;13.15;100.00
21086;BME280;34247;50.064;19.970;2023-04-25T02:53:03;98143.53;;;13.07;100.00
21086;BME280;34247;50.064;19.970;2023-04-25T02:54:08;98141.03;;;13.06;99.92
21086;BME280;34247;50.064;19.970;2023-04-25T02:55:13;98151.41;;;12.99;99.08
21086;BME280;34247;50.064;19.970;2023-04-25T02:56:17;98148.94;;;12.88;100.00
21086;BME280;34247;50.064;19.970;2023-04-25T02:57:21;98148.81;;;12.89;99.81
21086;BME280;34247;50.064;19.970;2023-04-25T02:58:26;98139.69;;;12.92;100.00
21086;BME280;34247;50.064;19.970;2023-04-25T02:59:34;98142.75;;;12.97;99.98
21086;BME280;34247;50.064;19.970;2023-04-25T03:00:42;98141.75;;;12.98;100.00
21086;BME280;34247;50.064;19.970;2023-04-25T03:01:46;98135.97;;;13.03;100.00
21086;BME280;34247;50.064;19.970;2023-04-25T03:02:54;98140.19;;;13.05;100.00
21086;BME280;34247;50.064;19.970;2023-04-25T03:04:00;98145.19;;;13.08;100.00
21086;BME280;34247;50.064;19.970;2023-04-25T03:05:04;98147.72;;;13.10;99.76
21086;BME280;34247;50.064;19.970;2023-04-25T03:06:12;98135.63;;;13.15;99.66
21086;BME280;34247;50.064;19.970;2023-04-25T03:07:19;98133.13;;;13.14;98.95
21086;BME280;34247;50.064;19.970;2023-04-25T03:08:26;98139.28;;;13.14;98.81
21086;BME280;34247;50.064;19.970;2023-04-25T03:09:35;98139.59;;;13.11;99.60
21086;BME280;34247;50.064;19.970;2023-04-25T03:10:40;98136.22;;;13.09;99.95
21086;BME280;34247;50.064;19.970;2023-04-25T03:11:46;98133.03;;;13.06;99.88
21086;BME280;34247;50.064;19.970;2023-04-25T03:12:50;98131.19;;;13.06;100.00
21086;BME280;34247;50.064;19.970;2023-04-25T03:13:53;98138.72;;;13.11;100.00
21086;BME280;34247;50.064;19.970;2023-04-25T03:15:00;98133.13;;;13.14;100.00
21086;BME280;34247;50.064;19.970;2023-04-25T03:16:07;98135.09;;;13.12;99.76
21086;BME280;34247;50.064;19.970;2023-04-25T03:17:13;98134.53;;;13.08;99.65
21086;BME280;34247;50.064;19.970;2023-04-25T03:18:18;98131.19;;;13.06;100.00
21086;BME280;34247;50.064;19.970;2023-04-25T03:19:21;98143.13;;;13.02;100.00
21086;BME280;34247;50.064;19.970;2023-04-25T03:20:25;98138.09;;;12.99;100.00
21086;BME280;34247;50.064;19.970;2023-04-25T03:21:31;98134.44;;;13.00;100.00
21086;BME280;34247;50.064;19.970;2023-04-25T03:22:38;98137.13;;;13.00;100.00
21086;BME280;34247;50.064;19.970;2023-04-25T03:23:42;98142.59;;;12.98;100.00
21086;BME280;34247;50.064;19.970;2023-04-25T03:24:46;98141.59;;;13.00;100.00
21086;BME280;34247;50.064;19.970;2023-04-25T03:25:53;98135.19;;;12.92;100.00
21086;BME280;34247;50.064;19.970;2023-04-25T03:26:58;98139.69;;;12.92;100.00
21086;BME280;34247;50.064;19.970;2023-04-25T03:28:01;98143.03;;;12.94;100.00
21086;BME280;34247;50.064;19.970;2023-04-25T03:29:06;98140.25;;;12.86;100.00
21086;BME280;34247;50.064;19.970;2023-04-25T03:30:13;98140.81;;;12.89;100.00
21086;BME280;34247;50.064;19.970;2023-04-25T03:31:17;98135.50;;;12.89;100.00
21086;BME280;34247;50.064;19.970;2023-04-25T03:32:20;98154.13;;;12.89;100.00
21086;BME280;34247;50.064;19.970;2023-04-25T03:33:24;98146.16;;;12.89;100.00
21086;BME280;34247;50.064;19.970;2023-04-25T03:34:28;98148.50;;;12.92;100.00
21086;BME280;34247;50.064;19.970;2023-04-25T03:35:32;98158.06;;;12.85;100.00
21086;BME280;34247;50.064;19.970;2023-04-25T03:36:36;98153.28;;;12.89;100.00
21086;BME280;34247;50.064;19.970;2023-04-25T03:37:42;98154.81;;;12.91;100.00
21086;BME280;34247;50.064;19.970;2023-04-25T03:38:48;98153.03;;;12.82;100.00
21086;BME280;34247;50.064;19.970;2023-04-25T03:39:53;98163.13;;;12.79;100.00
21086;BME280;34247;50.064;19.970;2023-04-25T03:40:57;98153.47;;;12.78;100.00
21086;BME280;34247;50.064;19.970;2023-04-25T03:42:01;98157.41;;;12.74;100.00
21086;BME280;34247;50.064;19.970;2023-04-25T03:43:09;98157.59;;;12.62;100.00
21086;BME280;34247;50.064;19.970;2023-04-25T03:44:17;98161.94;;;12.63;100.00
21086;BME280;34247;50.064;19.970;2023-04-25T03:45:21;98157.75;;;12.61;100.00
21086;BME280;34247;50.064;19.970;2023-04-25T03:46:24;98161.13;;;12.53;100.00
21086;BME280;34247;50.064;19.970;2023-04-25T03:47:28;98165.56;;;12.53;100.00
21086;BME280;34247;50.064;19.970;2023-04-25T03:48:33;98160.66;;;12.58;100.00
21086;BME280;34247;50.064;19.970;2023-04-25T03:49:36;98166.56;;;12.61;100.00
21086;BME280;34247;50.064;19.970;2023-04-25T03:50:41;98170.63;;;12.56;100.00
21086;BME280;34247;50.064;19.970;2023-04-25T03:51:44;98171.50;;;12.47;100.00
21086;BME280;34247;50.064;19.970;2023-04-25T03:52:49;98173.06;;;12.39;100.00
21086;BME280;34247;50.064;19.970;2023-04-25T03:53:53;98174.03;;;12.38;100.00
21086;BME280;34247;50.064;19.970;2023-04-25T03:54:57;98169.25;;;12.42;100.00
21086;BME280;34247;50.064;19.970;2023-04-25T03:56:01;98173.59;;;12.43;100.00
21086;BME280;34247;50.064;19.970;2023-04-25T03:57:04;98175.84;;;12.38;100.00
21086;BME280;34247;50.064;19.970;2023-04-25T03:58:08;98178.50;;;12.38;100.00
21086;BME280;34247;50.064;19.970;2023-04-25T03:59:12;98180.19;;;12.39;100.00
21086;BME280;34247;50.064;19.970;2023-04-25T04:00:16;98179.06;;;12.41;100.00
21086;BME280;34247;50.064;19.970;2023-04-25T04:01:20;98185.75;;;12.46;100.00
21086;BME280;34247;50.064;19.970;2023-04-25T04:02:24;98184.38;;;12.41;100.00
21086;BME280;34247;50.064;19.970;2023-04-25T04:03:28;98185.53;;;12.39;100.00
21086;BME280;34247;50.064;19.970;2023-04-25T04:04:33;98181.31;;;12.36;100.00
21086;BME280;34247;50.064;19.970;2023-04-25T04:05:37;98183.13;;;12.36;100.00
21086;BME280;34247;50.064;19.970;2023-04-25T04:06:44;98191.94;;;12.36;100.00
21086;BME280;34247;50.064;19.970;2023-04-25T04:07:48;98191.94;;;12.36;100.00
21086;BME280;34247;50.064;19.970;2023-04-25T04:08:52;98190.00;;;12.29;100.00
21086;BME280;34247;50.064;19.970;2023-04-25T04:09:56;98191.81;;;12.28;100.00
21086;BME280;34247;50.064;19.970;2023-04-25T04:11:00;98196.16;;;12.29;100.00
21086;BME280;34247;50.064;19.970;2023-04-25T04:12:04;98197.00;;;12.30;100.00
21086;BME280;34247;50.064;19.970;2023-04-25T04:13:08;98188.47;;;12.26;100.00
21086;BME280;34247;50.064;19.970;2023-04-25T04:14:12;98199.84;;;12.19;100.00
21086;BME280;34247;50.064;19.970;2023-04-25T04:15:16;98193.66;;;12.18;100.00
21086;BME280;34247;50.064;19.970;2023-04-25T04:16:20;98199.84;;;12.19;100.00
21086;BME280;34247;50.064;19.970;2023-04-25T04:17:24;98206.00;;;12.19;100.00
21086;BME280;34247;50.064;19.970;2023-04-25T04:18:28;98209.63;;;12.18;100.00
21086;BME280;34247;50.064;19.970;2023-04-25T04:19:32;98211.56;;;12.16;100.00
21086;BME280;34247;50.064;19.970;2023-04-25T04:20:36;98211.19;;;12.11;100.00
21086;BME280;34247;50.064;19.970;2023-04-25T04:21:39;98212.56;;;12.15;100.00
21086;BME280;34247;50.064;19.970;2023-04-25T04:22:43;98214.09;;;12.08;100.00
21086;BME280;34247;50.064;19.970;2023-04-25T04:23:48;98223.06;;;11.97;100.00
21086;BME280;34247;50.064;19.970;2023-04-25T04:24:52;98220.84;;;12.02;100.00
21086;BME280;34247;50.064;19.970;2023-04-25T04:25:56;98218.59;;;11.98;100.00
21086;BME280;34247;50.064;19.970;2023-04-25T04:27:00;98216.34;;;11.93;100.00
21086;BME280;34247;50.064;19.970;2023-04-25T04:28:04;98222.22;;;11.97;100.00
21086;BME280;34247;50.064;19.970;2023-04-25T04:29:08;98223.91;;;11.98;100.00
21086;BME280;34247;50.064;19.970;2023-04-25T04:30:12;98217.47;;;12.00;100.00
21086;BME280;34247;50.064;19.970;2023-04-25T04:31:16;98220.69;;;12.04;100.00
21086;BME280;34247;50.064;19.970;2023-04-25T04:32:23;98224.88;;;12.06;100.00
21086;BME280;34247;50.064;19.970;2023-04-25T04:33:27;98227.41;;;11.98;100.00
21086;BME280;34247;50.064;19.970;2023-04-25T04:34:31;98230.06;;;11.89;100.00
21086;BME280;34247;50.064;19.970;2023-04-25T04:35:35;98231.00;;;11.87;100.00
21086;BME280;34247;50.064;19.970;2023-04-25T04:36:39;98228.34;;;11.87;100.00
21086;BME280;34247;50.064;19.970;2023-04-25T04:37:43;98221.09;;;11.90;100.00
21086;BME280;34247;50.064;19.970;2023-04-25T04:38:49;98225.44;;;11.91;100.00
21086;BME280;34247;50.064;19.970;2023-04-25T04:39:53;98230.59;;;11.92;100.00
21086;BME280;34247;50.064;19.970;2023-04-25T04:40:57;98224.03;;;11.86;100.00
21086;BME280;34247;50.064;19.970;2023-04-25T04:42:00;98232.53;;;11.80;100.00
21086;BME280;34247;50.064;19.970;2023-04-25T04:43:13;98234.81;;;11.85;100.00
21086;BME280;34247;50.064;19.970;2023-04-25T04:44:18;98227.50;;;11.87;100.00
21086;BME280;34247;50.064;19.970;2023-04-25T04:45:21;98239.00;;;11.87;100.00
21086;BME280;34247;50.064;19.970;2023-04-25T04:46:26;98233.97;;;11.84;100.00
21086;BME280;34247;50.064;19.970;2023-04-25T04:47:31;98237.00;;;11.80;100.00
21086;BME280;34247;50.064;19.970;2023-04-25T04:48:37;98242.31;;;11.80;100.00
21086;BME280;34247;50.064;19.970;2023-04-25T04:49:44;98235.47;;;11.77;100.00
21086;BME280;34247;50.064;19.970;2023-04-25T04:50:49;98241.94;;;11.84;100.00
21086;BME280;34247;50.064;19.970;2023-04-25T04:51:53;98248.78;;;11.87;100.00
21086;BME280;34247;50.064;19.970;2023-04-25T04:53:03;98244.44;;;11.86;100.00
21086;BME280;34247;50.064;19.970;2023-04-25T04:54:10;98248.66;;;11.89;100.00
21086;BME280;34247;50.064;19.970;2023-04-25T04:55:14;98240.41;;;11.92;100.00
21086;BME280;34247;50.064;19.970;2023-04-25T04:56:18;98250.06;;;11.93;100.00
21086;BME280;34247;50.064;19.970;2023-04-25T04:57:24;98243.34;;;11.98;100.00
21086;BME280;34247;50.064;19.970;2023-04-25T04:58:28;98246.31;;;12.05;100.00
21086;BME280;34247;50.064;19.970;2023-04-25T04:59:33;98243.34;;;12.08;100.00
21086;BME280;34247;50.064;19.970;2023-04-25T05:00:38;98242.09;;;12.12;100.00
21086;BME280;34247;50.064;19.970;2023-04-25T05:01:42;98236.78;;;12.12;100.00
21086;BME280;34247;50.064;19.970;2023-04-25T05:02:45;98245.75;;;12.11;100.00
21086;BME280;34247;50.064;19.970;2023-04-25T05:03:49;98243.34;;;12.08;100.00
21086;BME280;34247;50.064;19.970;2023-04-25T05:04:57;98239.16;;;12.05;100.00
21086;BME280;34247;50.064;19.970;2023-04-25T05:06:01;98244.34;;;11.97;100.00
21086;BME280;34247;50.064;19.970;2023-04-25T05:07:04;98245.59;;;11.93;100.00
21086;BME280;34247;50.064;19.970;2023-04-25T05:08:08;98245.03;;;11.99;100.00
21086;BME280;34247;50.064;19.970;2023-04-25T05:09:13;98253.69;;;12.01;100.00
21086;BME280;34247;50.064;19.970;2023-04-25T05:10:18;98246.16;;;12.06;100.00
21086;BME280;34247;50.064;19.970;2023-04-25T05:11:24;98244.75;;;12.12;100.00
21086;BME280;34247;50.064;19.970;2023-04-25T05:12:28;98242.66;;;12.15;100.00
21086;BME280;34247;50.064;19.970;2023-04-25T05:13:33;98249.66;;;12.17;100.00
21086;BME280;34247;50.064;19.970;2023-04-25T05:14:38;98252.75;;;12.12;100.00
21086;BME280;34247;50.064;19.970;2023-04-25T05:15:41;98249.41;;;12.10;100.00
21086;BME280;34247;50.064;19.970;2023-04-25T05:16:46;98250.94;;;12.12;100.00
21086;BME280;34247;50.064;19.970;2023-04-25T05:17:50;98248.81;;;12.06;100.00
21086;BME280;34247;50.064;19.970;2023-04-25T05:18:54;98248.81;;;11.97;100.00
21086;BME280;34247;50.064;19.970;2023-04-25T05:19:58;98257.78;;;11.96;100.00
21086;BME280;34247;50.064;19.970;2023-04-25T05:21:02;98256.94;;;11.95;100.00
21086;BME280;34247;50.064;19.970;2023-04-25T05:22:09;98255.97;;;11.96;100.00
21086;BME280;34247;50.064;19.970;2023-04-25T05:23:13;98259.16;;;12.00;100.00
21086;BME280;34247;50.064;19.970;2023-04-25T05:24:17;98252.75;;;12.02;100.00
21086;BME280;34247;50.064;19.970;2023-04-25T05:25:21;98258.72;;;11.95;99.59
21086;BME280;34247;50.064;19.970;2023-04-25T05:26:25;98256.34;;;11.92;97.82
21086;BME280;34247;50.064;19.970;2023-04-25T05:27:29;98252.03;;;11.91;98.08
21086;BME280;34247;50.064;19.970;2023-04-25T05:28:33;98258.03;;;11.93;98.26
21086;BME280;34247;50.064;19.970;2023-04-25T05:29:37;98265.31;;;11.91;99.46
21086;BME280;34247;50.064;19.970;2023-04-25T05:30:41;98260.00;;;11.91;100.00
21086;BME280;34247;50.064;19.970;2023-04-25T05:31:47;98261.53;;;11.93;98.48
21086;BME280;34247;50.064;19.970;2023-04-25T05:32:51;98266.00;;;11.93;97.30
21086;BME280;34247;50.064;19.970;2023-04-25T05:33:55;98262.75;;;11.79;97.22
21086;BME280;34247;50.064;19.970;2023-04-25T05:35:00;98266.66;;;11.75;96.63